Impacts TAF Board
For situational awareness. Not to be used for flight planning purposes.
IDs:

KAGC - Pittsburgh/Allegheny, PA, US

Issued at 0520 UTC 07 Dec 2022
Updated at 0604 UTC 07 Dec 2022
Potential Impact None Slight Moderate High
Time<<07/19Z 07/20Z 07/21Z 07/22Z 07/23Z 08/00Z 08/01Z 08/02Z 08/03Z 08/04Z 08/05Z 08/06Z 08/07Z>>
Type PRVL PRVL PRVL PRVL PRVL PRVL PRVL PRVL PRVL PRVL PRVL
VIS 3 3 3 3 3 3 3 3 3 3 3
CIG 5 5 5 5 5 5 5 5 5 5 5
Cover OVC OVC OVC OVC OVC OVC OVC OVC OVC OVC OVC
FltCat IFR IFR IFR IFR IFR IFR IFR IFR IFR IFR IFR
WX BR BR BR BR BR BR BR BR BR BR BR
WDir 300 300 300 300 300 300 300 300 300 300 300
WSpd 5 5 5 5 5 5 5 5 5 5 5
WGst -- -- -- -- -- -- -- -- -- -- --
WSHgt -- -- -- -- -- -- -- -- -- -- --
WSDir -- -- -- -- -- -- -- -- -- -- --
WSSpd -- -- -- -- -- -- -- -- -- -- --
Raw TAF
KAGC 070520Z 0706/0806 19005KT 1/2SM -RA FG OVC003
  FM071200 20003KT 1/2SM -DZ FG OVC003
  FM071600 28005KT 1SM BR OVC003
  FM071900 30005KT 3SM BR OVC005


METAR Board
Radar Display
Forecast Discussion
For situational awareness. Not to be used for flight planning purposes.